»·PEaware :: N495LM KBZN-KHLN

N495LM :: KBZN-KHLN

FLIGHT INFORMATION

Flight Status: Arrived
Operator: Privately registered:
United States
More flights under this callsign
Pilot: Trevor S. (2559)
Aircraft: SOCATA TBM-700
(TBM7)
More flights by this aircraft type
Origin: KBZN Gallatin
United States
Destination: KHLN Helena Regl
United States
More flights between these airports :: More routes between these airports
Route: +BZN6 BZN V365 HLN
File this flight plan on PilotEdge
Remarks: FSEconomy
Altitude:
(Current/Filed)
14,000ft
Speed:
(Current/Filed)
270kts
Departed: 02-Apr-20 12:17 PM
Arrived: 02-Apr-20 12:47 PM
Distance/Time
Traveled:
60nm/0:30
Distance/Time
To Go:
Arrived

Flight Plot

Page will automatically refresh every two minutes.

Flight plan parsing failed; only flown route is shown


Map Options




Map Legend


Flown Route
Filed Route
Departure Airport
Arrival Airport
Navaid (VOR, NDB)
Fix

Horizontal Profiles

Position Reports

Time Latitude Longitude Heading Altitude Ground
Speed
02-Apr-20 11:59 45.772867 -111.152395 318 4475ft 0kts
02-Apr-20 12:00 45.772867 -111.152395 318 4475ft 0kts
02-Apr-20 12:01 45.772867 -111.152395 318 4475ft 0kts
02-Apr-20 12:02 45.772868 -111.152396 318 4475ft 0kts
02-Apr-20 12:03 45.772868 -111.152396 318 4475ft 0kts
02-Apr-20 12:04 45.772868 -111.152396 318 4475ft 0kts
02-Apr-20 12:05 45.772868 -111.152396 318 4475ft 0kts
02-Apr-20 12:06 45.772868 -111.152396 318 4475ft 0kts
02-Apr-20 12:07 45.772868 -111.152396 318 4475ft 0kts
02-Apr-20 12:08 45.772940 -111.152395 38 4475ft 0kts
02-Apr-20 12:09 45.776326 -111.154527 317 4475ft 25kts
02-Apr-20 12:10 45.782054 -111.162335 316 4475ft 29kts
02-Apr-20 12:11 45.786999 -111.167413 44 4475ft 9kts
02-Apr-20 12:12 45.787439 -111.166769 46 4475ft 0kts
02-Apr-20 12:13 45.787441 -111.166766 46 4475ft 0kts
02-Apr-20 12:14 45.787443 -111.166763 46 4475ft 0kts
02-Apr-20 12:15 45.787114 -111.165126 135 4475ft 12kts
02-Apr-20 12:16 45.771975 -111.144796 135 4900ft 104kts
02-Apr-20 12:17 45.761853 -111.167590 320 6064ft 156kts
02-Apr-20 12:18 45.758959 -111.222826 236 7841ft 173kts
02-Apr-20 12:19 45.732428 -111.286173 240 9578ft 194kts
02-Apr-20 12:20 45.705474 -111.355776 239 11280ft 205kts
02-Apr-20 12:21 45.718580 -111.418072 356 12997ft 200kts
02-Apr-20 12:22 45.776163 -111.402238 11 14000ft 235kts
02-Apr-20 12:23 45.844603 -111.378625 11 13998ft 263kts
02-Apr-20 12:24 45.917245 -111.354571 11 13999ft 269kts
02-Apr-20 12:25 45.990421 -111.330678 11 13999ft 270kts
02-Apr-20 12:26 46.063901 -111.321172 344 14002ft 267kts
02-Apr-20 12:27 46.133444 -111.358640 337 13999ft 266kts
02-Apr-20 12:28 46.202046 -111.398915 337 14021ft 266kts
02-Apr-20 12:29 46.270740 -111.439298 337 14021ft 266kts
02-Apr-20 12:30 46.339117 -111.479599 337 14021ft 265kts
02-Apr-20 12:32 46.407664 -111.520110 337 14021ft 266kts
02-Apr-20 12:33 46.468039 -111.577467 309 14025ft 265kts
02-Apr-20 12:34 46.514699 -111.661042 309 13782ft 272kts
02-Apr-20 12:35 46.561720 -111.745244 309 12958ft 266kts
02-Apr-20 12:36 46.616640 -111.771894 42 11107ft 221kts
02-Apr-20 12:37 46.603507 -111.696506 126 9140ft 216kts
02-Apr-20 12:38 46.563562 -111.643726 199 7465ft 183kts
02-Apr-20 12:39 46.557660 -111.691617 290 7433ft 118kts
02-Apr-20 12:40 46.568536 -111.736306 286 7003ft 122kts
02-Apr-20 12:41 46.575447 -111.786390 282 6335ft 126kts
02-Apr-20 12:42 46.582871 -111.829653 283 5673ft 95kts
02-Apr-20 12:43 46.588079 -111.866145 280 5191ft 87kts
02-Apr-20 12:44 46.592894 -111.899530 286 4778ft 83kts
02-Apr-20 12:45 46.598297 -111.932822 285 4336ft 86kts
02-Apr-20 12:46 46.603699 -111.967351 284 3882ft 79kts
02-Apr-20 12:47 46.605942 -111.985707 165 3881ft 9kts
02-Apr-20 12:48 46.604949 -111.985153 139 3881ft 18kts
02-Apr-20 12:49 46.602741 -111.982159 282 3881ft 0kts
02-Apr-20 12:50 46.602741 -111.982159 282 3881ft 0kts
02-Apr-20 12:51 46.602741 -111.982159 282 3881ft 0kts
02-Apr-20 12:51 46.602741 -111.982159 282 3881ft 0kts
02-Apr-20 12:53 46.602741 -111.982159 282 3881ft 0kts
02-Apr-20 12:54 46.602741 -111.982159 282 3881ft 0kts
02-Apr-20 12:54 46.602741 -111.982159 282 3881ft 0kts
02-Apr-20 12:55 46.602741 -111.982159 282 3881ft 0kts
02-Apr-20 12:57 46.602741 -111.982159 282 3881ft 0kts
02-Apr-20 12:57 46.602741 -111.982159 282 3881ft 0kts
02-Apr-20 12:58 46.602741 -111.982159 282 3881ft 0kts
02-Apr-20 12:59 46.602741 -111.982159 282 3881ft 0kts
02-Apr-20 13:00 46.602741 -111.982159 282 3881ft 0kts

Navigation Log

Ident Type
Flight plan parsing failed, navigation log unavailable